Airfield :







YOU CAN JOIN US ON...

 
LOGIN :

Register | Disclaimer

   EN    FR    IT 

 









Legend :    VFR   Marginal VFR   IFR   Intensive IFR   Very Intensive IFR
Visi :
Ceiling :
>= 8 km
>= 3000ft
5 to 8 km
1000 to 3000 ft
1500m to 5 km
500 to 1000 ft
800 to 1500m
200 to 500 ft
< 800m
< 200 ft
Symbols :   Thunderstorms  Fog  Heavy snow  Heavy precipitations  Wind > 20 kt






- Airport Elevation : 244 ft
- IATA code : YQB


CYQB - Quebec - Jean Lesage Int.

CURRENT METAR :
  • 291700Z 24020G27KT 30SM SCT049 30/19 A2973 RMK SC4 SLP068 DENSITY ALT 2300FT

EXPIRED METARs :
  • 291600Z 24017G28KT 30SM SCT045 SCT100 SCT270 29/19 A2975 RMK CU3AC1CI1 AC TR TCU ASOCTD SLP076 DENSITY ALT 2100FT
  • 291500Z 26015G20KT 30SM FEW035 FEW110 BKN270 27/20 A2978 RMK CU2AC1CI5 AC TR DIST TCU E-W DIST SH E SLP084 DENSITY ALT 1800FT

TAF TAF CYQB
Valid from the 29 at 18:00 until the 30 at 18:00 UTC


291730Z 2918/3018 24018G28KT P6SM SCT050 SCT100 BKN240
TEMPO 2918/3001 BKN050 OVC100
BECMG 2923/3001 24012KT
FM300100 23010G20KT P6SM FEW006 SCT012 OVC025
TEMPO 3001/3010 3SM -SHRA BR SCT006 BKN012 OVC025
PROB30 3001/3006 VRB15G25KT 2SM TSRA BR BKN006 OVC012CB
FM301000 33008KT P6SM FEW008 SCT020 OVC030
FM301600 VRB03KT P6SM BKN040 RMK NXT FCST BY 300000Z
ATIS : ENG : +1 418-871-6893 FRA : +1 418-871-6895
CZUL FIR / North America



MET'MAP, your aeronautical weather chart ! - Copyright ORBIFLY December 2007 - Disclaimer

ORBIFLY MET'MAP TEAM :

Programming & Development : Alexandra Zaïnal
Concept & original design : Baudouin d'Aumeries
Assistance for programming : Marc-Olivier Méhu
Technical & hardware support : Manuel Goepfert

Contact : metmap@orbifly.com




SOURCES & CREDITS :

   NOAA